createdAt,value
2018-04-26T00:01:49.701Z,9.33
2018-04-26T00:04:23.292Z,9.11
2018-04-26T00:06:56.932Z,9.12
2018-04-26T00:09:30.468Z,9.23
2018-04-26T00:12:04.154Z,9.23
2018-04-26T00:14:37.734Z,9.19
2018-04-26T00:17:11.275Z,9.05
2018-04-26T00:19:44.935Z,9.21
2018-04-26T00:22:18.468Z,9.27
2018-04-26T00:24:52.132Z,9.05
2018-04-26T00:27:25.756Z,9.09
2018-04-26T00:29:59.538Z,9.15
2018-04-26T00:32:33.293Z,9.06
2018-04-26T00:35:06.744Z,9.00
2018-04-26T00:37:40.426Z,8.99
2018-04-26T00:40:13.986Z,9.06
2018-04-26T00:42:47.539Z,9.02
2018-04-26T00:45:21.188Z,9.06
2018-04-26T00:47:54.822Z,9.15
2018-04-26T00:50:28.620Z,9.10
2018-04-26T00:53:02.291Z,9.20
2018-04-26T00:55:36.136Z,9.30
2018-04-26T00:58:09.766Z,9.35
2018-04-26T01:00:43.321Z,9.46
2018-04-26T01:03:17.104Z,9.44
2018-04-26T01:05:50.671Z,9.40
2018-04-26T01:08:24.392Z,9.47
2018-04-26T01:10:57.945Z,9.34
2018-04-26T01:13:31.543Z,9.48
2018-04-26T01:16:05.460Z,9.40
2018-04-26T01:18:38.966Z,9.54
2018-04-26T01:21:12.615Z,9.37
2018-04-26T01:23:46.379Z,9.60
2018-04-26T01:26:20.037Z,9.47
2018-04-26T01:28:53.583Z,9.37
2018-04-26T01:31:27.245Z,9.32
2018-04-26T01:34:00.892Z,9.29
2018-04-26T01:36:46.308Z,9.44
2018-04-26T01:39:19.949Z,9.44
2018-04-26T01:41:53.544Z,9.62
2018-04-26T01:44:27.129Z,9.52
2018-04-26T01:47:00.822Z,9.52
2018-04-26T01:49:34.388Z,9.44
2018-04-26T01:52:08.036Z,9.55
2018-04-26T01:54:41.602Z,9.41
2018-04-26T01:57:15.123Z,9.52
2018-04-26T01:59:48.840Z,9.54
2018-04-26T02:02:22.392Z,9.47
2018-04-26T02:04:55.950Z,9.40
2018-04-26T02:07:29.500Z,9.32
2018-04-26T02:10:03.245Z,9.62
2018-04-26T02:12:36.844Z,9.43
2018-04-26T02:15:10.433Z,9.36
2018-04-26T02:17:44.003Z,9.46
2018-04-26T02:20:17.603Z,9.52
2018-04-26T02:22:51.202Z,9.48
2018-04-26T02:25:24.855Z,9.31
2018-04-26T02:27:58.375Z,9.55
2018-04-26T02:30:32.048Z,9.39
2018-04-26T02:33:05.702Z,9.37
2018-04-26T02:35:39.371Z,9.48
2018-04-26T02:38:12.895Z,9.54
2018-04-26T02:40:46.500Z,9.60
2018-04-26T02:43:20.024Z,9.73
2018-04-26T02:45:53.683Z,9.44
2018-04-26T02:48:27.211Z,9.57
2018-04-26T02:51:00.820Z,9.38
2018-04-26T02:53:34.476Z,9.53
2018-04-26T02:56:08.096Z,9.79
2018-04-26T02:58:41.681Z,9.77
2018-04-26T03:01:15.217Z,9.57
2018-04-26T03:03:48.849Z,9.41
2018-04-26T03:06:22.447Z,9.52
2018-04-26T03:08:56.236Z,9.37
2018-04-26T03:11:29.747Z,9.77
2018-04-26T03:14:03.399Z,9.53
2018-04-26T03:16:36.957Z,9.36
2018-04-26T03:19:10.622Z,9.46
2018-04-26T03:21:44.145Z,9.54
2018-04-26T03:24:17.796Z,9.50
2018-04-26T03:26:51.402Z,9.39
2018-04-26T03:29:25.120Z,9.65
2018-04-26T03:31:58.821Z,9.51
2018-04-26T03:34:32.503Z,9.48
2018-04-26T03:37:06.180Z,9.37
2018-04-26T03:39:39.824Z,9.39
2018-04-26T03:42:13.347Z,9.43
2018-04-26T03:44:47.009Z,9.37
2018-04-26T03:47:20.559Z,9.51
2018-04-26T03:49:54.339Z,9.35
2018-04-26T03:52:27.872Z,9.54
2018-04-26T03:55:01.519Z,9.39
2018-04-26T03:57:35.068Z,9.30
2018-04-26T04:00:20.679Z,9.28
2018-04-26T04:03:06.084Z,9.50
2018-04-26T04:05:52.038Z,9.45
2018-04-26T04:08:25.670Z,9.42
2018-04-26T04:10:59.220Z,9.24
2018-04-26T04:13:32.815Z,9.38
2018-04-26T04:16:06.424Z,9.31
2018-04-26T04:18:40.029Z,9.33
2018-04-26T04:21:13.700Z,9.57
2018-04-26T04:23:47.277Z,9.59
2018-04-26T04:26:20.914Z,9.48
2018-04-26T04:28:54.657Z,9.31
2018-04-26T04:31:28.337Z,9.34
2018-04-26T04:34:02.600Z,9.32
2018-04-26T04:36:36.219Z,9.50
2018-04-26T04:39:09.955Z,9.34
2018-04-26T04:41:43.524Z,9.60
2018-04-26T04:44:17.073Z,9.24
2018-04-26T04:46:50.697Z,9.28
2018-04-26T04:49:24.332Z,9.53
2018-04-26T04:51:57.975Z,9.30
2018-04-26T04:54:31.652Z,9.44
2018-04-26T04:57:05.220Z,9.23
2018-04-26T04:59:38.957Z,9.28
2018-04-26T05:02:12.643Z,9.34
2018-04-26T05:04:46.728Z,9.44
2018-04-26T05:07:20.362Z,9.38
2018-04-26T05:09:53.968Z,9.38
2018-04-26T05:12:27.659Z,9.38
2018-04-26T05:15:01.259Z,9.50
2018-04-26T05:17:34.893Z,9.52
2018-04-26T05:20:08.483Z,9.49
2018-04-26T05:22:42.062Z,9.57
2018-04-26T05:25:15.652Z,9.65
2018-04-26T05:27:49.324Z,9.73
2018-04-26T05:30:22.928Z,9.43
2018-04-26T05:32:56.608Z,9.56
2018-04-26T05:35:30.137Z,9.44
2018-04-26T05:38:03.842Z,9.34
2018-04-26T05:40:37.667Z,9.35
2018-04-26T05:43:11.177Z,9.11
2018-04-26T05:45:44.824Z,8.95
2018-04-26T05:48:18.397Z,8.83
2018-04-26T05:50:51.986Z,9.07
2018-04-26T05:53:25.732Z,9.13
2018-04-26T05:55:59.309Z,9.05
2018-04-26T05:58:32.952Z,8.97
2018-04-26T06:01:06.636Z,9.21
2018-04-26T06:03:40.192Z,8.86
2018-04-26T06:06:13.849Z,8.94
2018-04-26T06:08:47.420Z,8.96
2018-04-26T06:11:21.069Z,8.90
2018-04-26T06:13:54.640Z,9.11
2018-04-26T06:16:28.149Z,9.05
2018-04-26T06:19:01.680Z,9.20
2018-04-26T06:21:35.289Z,9.12
2018-04-26T06:24:08.871Z,9.37
2018-04-26T06:26:59.700Z,9.34
2018-04-26T06:29:33.493Z,9.23
2018-04-26T06:32:07.077Z,9.38
2018-04-26T06:34:40.614Z,9.60
2018-04-26T06:37:14.372Z,9.65
2018-04-26T06:39:47.948Z,9.73
2018-04-26T06:42:21.581Z,9.42
2018-04-26T06:44:55.175Z,9.57
2018-04-26T06:47:28.841Z,9.70
2018-04-26T06:50:02.580Z,9.28
2018-04-26T06:52:36.213Z,9.07
2018-04-26T06:55:09.899Z,8.71
2018-04-26T06:57:43.612Z,8.16
2018-04-26T07:00:17.179Z,8.27
2018-04-26T07:02:50.904Z,8.42
2018-04-26T07:05:24.992Z,8.83
2018-04-26T07:07:58.638Z,8.93
2018-04-26T07:10:32.324Z,8.91
2018-04-26T07:13:05.928Z,8.77
2018-04-26T07:15:39.530Z,8.96
2018-04-26T07:18:13.016Z,8.95
2018-04-26T07:20:46.579Z,8.94
2018-04-26T07:23:20.215Z,9.08
2018-04-26T07:25:53.960Z,9.26
2018-04-26T07:28:27.653Z,9.54
2018-04-26T07:31:01.228Z,10.07
2018-04-26T07:33:34.950Z,10.67
2018-04-26T07:36:08.575Z,11.12
2018-04-26T07:38:42.292Z,11.03
2018-04-26T07:41:15.859Z,10.98
2018-04-26T07:43:49.568Z,11.68
2018-04-26T07:46:23.316Z,13.11
2018-04-26T07:48:56.896Z,13.36
2018-04-26T07:51:30.655Z,13.41
2018-04-26T07:54:04.245Z,13.47
2018-04-26T07:56:37.972Z,12.83
2018-04-26T07:59:11.569Z,12.38
2018-04-26T08:01:45.352Z,12.35
2018-04-26T08:04:18.898Z,12.08
2018-04-26T08:06:52.536Z,11.36
2018-04-26T08:09:26.056Z,12.97
2018-04-26T08:11:59.728Z,13.53
2018-04-26T08:14:33.282Z,13.73
2018-04-26T08:17:06.992Z,14.14
2018-04-26T08:19:40.683Z,14.14
2018-04-26T08:22:14.306Z,14.91
2018-04-26T08:24:47.894Z,14.66
2018-04-26T08:27:21.586Z,13.39
2018-04-26T08:29:55.180Z,12.16
2018-04-26T08:32:28.779Z,12.26
2018-04-26T08:35:02.606Z,12.07
2018-04-26T08:37:36.315Z,12.97
2018-04-26T08:40:10.091Z,13.74
2018-04-26T08:42:43.609Z,13.91
2018-04-26T08:45:17.356Z,13.05
2018-04-26T08:47:51.048Z,11.95
2018-04-26T08:50:24.756Z,12.83
2018-04-26T08:52:58.287Z,13.16
2018-04-26T08:55:31.853Z,13.01
2018-04-26T08:58:05.583Z,12.52
2018-04-26T09:00:39.342Z,11.98
2018-04-26T09:03:13.060Z,11.99
2018-04-26T09:05:46.675Z,11.74
2018-04-26T09:08:20.439Z,11.12
2018-04-26T09:10:54.034Z,10.45
2018-04-26T09:13:27.625Z,9.68
2018-04-26T09:16:01.271Z,10.10
2018-04-26T09:18:34.807Z,10.27
2018-04-26T09:21:08.320Z,11.34
2018-04-26T09:23:41.854Z,12.53
2018-04-26T09:26:39.135Z,13.28
2018-04-26T09:29:12.773Z,13.87
2018-04-26T09:31:46.392Z,15.34
2018-04-26T09:34:19.929Z,17.53
2018-04-26T09:36:53.472Z,15.84
2018-04-26T09:39:26.999Z,16.32
2018-04-26T09:42:00.640Z,15.83
2018-04-26T09:44:34.304Z,14.38
2018-04-26T09:47:08.527Z,13.88
2018-04-26T09:49:42.043Z,13.35
2018-04-26T09:52:15.745Z,13.02
2018-04-26T09:54:49.391Z,12.33
2018-04-26T09:57:22.967Z,13.16
2018-04-26T09:59:56.504Z,13.65
2018-04-26T10:02:30.300Z,15.00
2018-04-26T10:05:03.888Z,15.82
2018-04-26T10:07:37.598Z,16.29
2018-04-26T10:10:11.370Z,15.13
2018-04-26T10:12:45.007Z,15.18
2018-04-26T10:15:18.760Z,16.42
2018-04-26T10:17:52.321Z,17.08
2018-04-26T10:20:25.843Z,16.98
2018-04-26T10:22:59.454Z,17.98
2018-04-26T10:25:33.116Z,18.83
2018-04-26T10:28:06.686Z,18.95
2018-04-26T10:30:40.226Z,16.83
2018-04-26T10:33:13.860Z,16.87
2018-04-26T10:35:47.360Z,15.66
2018-04-26T10:38:21.108Z,14.95
2018-04-26T10:40:54.692Z,14.54
2018-04-26T10:43:28.348Z,14.43
2018-04-26T10:46:02.202Z,13.75
2018-04-26T10:48:35.910Z,14.16
2018-04-26T10:51:09.590Z,14.14
2018-04-26T10:53:43.228Z,14.30
2018-04-26T10:56:16.798Z,15.52
2018-04-26T10:58:51.460Z,16.15
2018-04-26T11:01:25.203Z,16.12
2018-04-26T11:03:58.769Z,15.46
2018-04-26T11:06:32.552Z,15.47
2018-04-26T11:09:06.372Z,15.23
2018-04-26T11:11:40.184Z,15.04
2018-04-26T11:14:13.704Z,15.12
2018-04-26T11:16:47.476Z,15.20
2018-04-26T11:19:20.985Z,14.32
2018-04-26T11:21:54.712Z,13.88
2018-04-26T11:24:28.326Z,13.09
2018-04-26T11:27:02.068Z,12.81
2018-04-26T11:29:35.600Z,12.84
2018-04-26T11:32:09.243Z,13.18
2018-04-26T11:34:42.808Z,14.58
2018-04-26T11:37:16.462Z,15.74
2018-04-26T11:39:50.208Z,16.16
2018-04-26T11:42:23.982Z,14.77
2018-04-26T11:44:57.688Z,13.81
2018-04-26T11:47:31.417Z,13.57
2018-04-26T11:50:05.130Z,12.95
2018-04-26T11:52:38.798Z,13.62
2018-04-26T11:55:12.495Z,14.04
2018-04-26T11:57:45.974Z,14.91
2018-04-26T12:00:19.532Z,14.17
2018-04-26T12:02:53.157Z,14.30
2018-04-26T12:05:26.930Z,14.65
2018-04-26T12:08:00.561Z,14.87
2018-04-26T12:10:34.144Z,14.38
2018-04-26T12:13:07.866Z,13.74
2018-04-26T12:15:41.484Z,13.77
2018-04-26T12:18:15.122Z,13.58
2018-04-26T12:20:48.853Z,14.25
2018-04-26T12:23:22.495Z,15.17
2018-04-26T12:25:56.548Z,15.07
2018-04-26T12:28:30.209Z,14.76
2018-04-26T12:31:03.702Z,14.52
2018-04-26T12:33:37.269Z,14.47
2018-04-26T12:36:10.796Z,14.69
2018-04-26T12:38:44.396Z,14.38
2018-04-26T12:41:17.919Z,14.67
2018-04-26T12:43:51.511Z,15.72
2018-04-26T12:46:25.056Z,15.83
2018-04-26T12:48:58.795Z,15.72
2018-04-26T12:51:32.383Z,15.78
2018-04-26T12:54:05.915Z,15.86
2018-04-26T12:56:56.976Z,15.78
2018-04-26T12:59:30.683Z,14.99
2018-04-26T13:02:04.489Z,15.41
2018-04-26T13:04:38.026Z,15.70
2018-04-26T13:07:11.661Z,14.99
2018-04-26T13:09:45.192Z,15.04
2018-04-26T13:12:18.863Z,15.33
2018-04-26T13:14:52.343Z,15.78
2018-04-26T13:17:26.110Z,15.48
2018-04-26T13:19:59.653Z,15.83
2018-04-26T13:22:33.239Z,15.92
2018-04-26T13:25:06.906Z,15.59
2018-04-26T13:27:40.550Z,15.42
2018-04-26T13:30:14.123Z,15.09
2018-04-26T13:32:47.823Z,14.71
2018-04-26T13:35:21.352Z,14.35
2018-04-26T13:37:55.667Z,14.29
2018-04-26T13:40:29.400Z,14.28
2018-04-26T13:43:02.900Z,14.35
2018-04-26T13:45:36.456Z,14.27
2018-04-26T13:48:10.236Z,14.14
2018-04-26T13:50:44.012Z,13.86
2018-04-26T13:53:17.535Z,14.01
2018-04-26T13:55:51.252Z,13.92
2018-04-26T13:58:24.941Z,13.03
2018-04-26T14:00:58.656Z,12.36
2018-04-26T14:03:32.167Z,12.21
2018-04-26T14:06:05.704Z,11.92
2018-04-26T14:08:39.494Z,11.80
2018-04-26T14:11:13.193Z,11.65
2018-04-26T14:13:46.860Z,11.99
2018-04-26T14:16:20.397Z,12.28
2018-04-26T14:18:54.204Z,12.56
2018-04-26T14:21:27.742Z,13.00
2018-04-26T14:24:01.339Z,13.87
2018-04-26T14:26:34.894Z,14.92
2018-04-26T14:29:08.435Z,16.44
2018-04-26T14:31:42.025Z,17.85
2018-04-26T14:34:15.536Z,17.17
2018-04-26T14:36:49.092Z,16.95
2018-04-26T14:39:22.737Z,17.50
2018-04-26T14:41:56.272Z,16.60
2018-04-26T14:44:29.763Z,17.00
2018-04-26T14:47:03.346Z,16.76
2018-04-26T14:49:36.938Z,17.58
2018-04-26T14:52:10.561Z,18.15
2018-04-26T14:54:44.085Z,19.29
2018-04-26T14:57:17.860Z,16.81
2018-04-26T14:59:51.592Z,17.53
2018-04-26T15:02:25.133Z,16.37
2018-04-26T15:04:58.900Z,15.62
2018-04-26T15:07:32.407Z,15.00
2018-04-26T15:10:06.189Z,14.23
2018-04-26T15:12:39.836Z,14.33
2018-04-26T15:15:13.553Z,14.51
2018-04-26T15:17:47.246Z,14.55
2018-04-26T15:20:20.855Z,14.05
2018-04-26T15:22:54.604Z,14.26
2018-04-26T15:25:28.448Z,15.92
2018-04-26T15:28:01.994Z,17.14
2018-04-26T15:30:35.612Z,17.30
2018-04-26T15:33:09.137Z,16.58
2018-04-26T15:35:42.709Z,17.28
2018-04-26T15:38:16.393Z,17.82
2018-04-26T15:40:50.134Z,17.96
2018-04-26T15:43:23.645Z,17.38
2018-04-26T15:45:57.300Z,17.30
2018-04-26T15:48:30.830Z,17.11
2018-04-26T15:51:04.530Z,16.36
2018-04-26T15:56:54.722Z,16.39
2018-04-26T15:59:40.226Z,14.73
2018-04-26T16:02:31.805Z,14.13
2018-04-26T16:05:23.182Z,13.83
2018-04-26T16:08:14.520Z,13.65
2018-04-26T16:11:05.850Z,13.59
2018-04-26T16:13:57.296Z,13.74
2018-04-26T16:20:01.347Z,13.79
2018-04-26T16:22:52.672Z,13.83
2018-04-26T16:25:38.278Z,14.07
2018-04-26T16:28:29.665Z,14.17
2018-04-26T16:31:21.071Z,13.90
2018-04-26T16:34:05.712Z,13.65
2018-04-26T16:36:51.446Z,13.49
2018-04-26T16:39:25.282Z,13.51
2018-04-26T16:41:59.109Z,13.69
2018-04-26T16:44:32.920Z,13.68
2018-04-26T16:47:06.556Z,13.39
2018-04-26T16:49:40.091Z,13.35
2018-04-26T16:52:13.760Z,13.65
2018-04-26T16:54:47.377Z,13.67
2018-04-26T16:57:20.889Z,13.32
2018-04-26T16:59:54.523Z,13.20
2018-04-26T17:02:28.000Z,13.03
2018-04-26T17:05:01.869Z,12.95
2018-04-26T17:07:35.476Z,12.64
2018-04-26T17:10:09.310Z,12.75
2018-04-26T17:12:43.074Z,12.24
2018-04-26T17:15:16.966Z,12.45
2018-04-26T17:17:50.798Z,12.29
2018-04-26T17:20:24.316Z,12.32
2018-04-26T17:22:57.884Z,12.06
2018-04-26T17:25:31.544Z,12.06
2018-04-26T17:28:05.163Z,12.15
2018-04-26T17:30:38.796Z,12.07
2018-04-26T17:33:12.316Z,12.00
2018-04-26T17:35:45.900Z,12.13
2018-04-26T17:38:19.667Z,12.12
2018-04-26T17:40:53.480Z,12.11
2018-04-26T17:43:27.005Z,11.61
2018-04-26T17:46:00.610Z,11.70
2018-04-26T17:48:34.276Z,11.28
2018-04-26T17:51:07.898Z,11.24
2018-04-26T17:53:41.701Z,11.26
2018-04-26T17:56:15.305Z,11.28
2018-04-26T17:58:48.889Z,10.96
2018-04-26T18:01:22.469Z,11.15
2018-04-26T18:03:56.290Z,11.08
2018-04-26T18:06:29.952Z,10.92
2018-04-26T18:09:03.569Z,11.11
2018-04-26T18:11:37.353Z,11.15
2018-04-26T18:14:11.072Z,11.18
2018-04-26T18:16:44.976Z,11.15
2018-04-26T18:19:18.697Z,11.18
2018-04-26T18:21:52.397Z,11.13
2018-04-26T18:24:26.246Z,10.86
2018-04-26T18:27:00.034Z,10.80
2018-04-26T18:29:33.865Z,10.76
2018-04-26T18:32:07.613Z,10.61
2018-04-26T18:34:41.229Z,10.40
2018-04-26T18:37:15.064Z,10.29
2018-04-26T18:39:48.622Z,10.17
2018-04-26T18:42:22.241Z,10.10
2018-04-26T18:44:55.945Z,10.08
2018-04-26T18:47:29.589Z,10.03
2018-04-26T18:50:03.251Z,10.02
2018-04-26T18:52:36.932Z,10.02
2018-04-26T18:55:10.607Z,9.98
2018-04-26T18:57:44.312Z,10.02
2018-04-26T19:00:18.049Z,10.11
2018-04-26T19:02:51.641Z,10.25
2018-04-26T19:05:25.409Z,10.28
2018-04-26T19:07:59.064Z,10.26
2018-04-26T19:10:32.712Z,10.37
2018-04-26T19:13:06.410Z,10.39
2018-04-26T19:15:40.282Z,10.47
2018-04-26T19:18:14.085Z,10.55
2018-04-26T19:20:48.048Z,10.53
2018-04-26T19:23:21.699Z,10.41
2018-04-26T19:25:55.387Z,10.36
2018-04-26T19:28:29.016Z,10.33
2018-04-26T19:31:02.707Z,10.26
2018-04-26T19:33:36.253Z,10.13
2018-04-26T19:36:09.909Z,10.28
2018-04-26T19:38:43.542Z,10.36
2018-04-26T19:41:17.165Z,10.46
2018-04-26T19:43:50.933Z,10.46
2018-04-26T19:46:24.618Z,10.52
2018-04-26T19:48:58.320Z,10.55
2018-04-26T19:51:32.062Z,10.53
2018-04-26T19:54:05.625Z,10.48
2018-04-26T19:56:39.398Z,10.39
2018-04-26T19:59:13.277Z,10.36
2018-04-26T20:01:46.987Z,10.31
2018-04-26T20:04:20.549Z,10.25
2018-04-26T20:06:54.299Z,10.26
2018-04-26T20:09:28.007Z,10.24
2018-04-26T20:12:01.706Z,10.18
2018-04-26T20:14:35.464Z,10.13
2018-04-26T20:17:09.134Z,10.11
2018-04-26T20:19:42.769Z,10.04
2018-04-26T20:22:16.345Z,10.02
2018-04-26T20:24:50.125Z,9.98
2018-04-26T20:27:23.686Z,10.01
2018-04-26T20:29:57.345Z,9.98
2018-04-26T20:32:31.043Z,10.00
2018-04-26T20:35:04.866Z,9.98
2018-04-26T20:37:38.597Z,9.99
2018-04-26T20:40:16.329Z,9.96
2018-04-26T20:42:49.915Z,9.93
2018-04-26T20:45:23.529Z,9.88
2018-04-26T20:47:57.212Z,9.78
2018-04-26T20:50:31.114Z,9.71
2018-04-26T20:53:04.943Z,9.78
2018-04-26T20:55:38.548Z,9.89
2018-04-26T20:58:12.161Z,9.90
2018-04-26T21:00:46.103Z,9.68
2018-04-26T21:03:19.673Z,9.69
2018-04-26T21:05:53.364Z,9.65
2018-04-26T21:08:26.956Z,9.58
2018-04-26T21:11:00.477Z,9.56
2018-04-26T21:13:34.079Z,9.57
2018-04-26T21:16:07.720Z,9.60
2018-04-26T21:18:41.394Z,9.64
2018-04-26T21:21:14.974Z,9.59
2018-04-26T21:23:48.556Z,9.63
2018-04-26T21:26:22.062Z,9.66
2018-04-26T21:28:55.831Z,9.56
2018-04-26T21:31:29.476Z,9.42
2018-04-26T21:34:03.096Z,9.25
2018-04-26T21:36:36.706Z,9.20
2018-04-26T21:39:10.424Z,9.09
2018-04-26T21:41:44.027Z,8.99
2018-04-26T21:44:17.724Z,8.95
2018-04-26T21:46:51.310Z,8.95
2018-04-26T21:49:24.464Z,8.97
2018-04-26T21:52:03.828Z,8.99
2018-04-26T21:54:43.167Z,8.92
2018-04-26T21:57:22.508Z,8.89
2018-04-26T22:00:01.716Z,8.87
2018-04-26T22:02:35.080Z,8.93
2018-04-26T22:08:10.838Z,9.10
2018-04-26T22:10:44.499Z,9.09
2018-04-26T22:13:18.268Z,9.04
2018-04-26T22:15:51.779Z,8.94
2018-04-26T22:18:25.460Z,8.97
2018-04-26T22:20:59.151Z,9.02
2018-04-26T22:23:32.833Z,9.16
2018-04-26T22:26:06.541Z,9.22
2018-04-26T22:28:40.160Z,9.16
2018-04-26T22:31:13.781Z,9.03
2018-04-26T22:33:47.388Z,8.97
2018-04-26T22:36:23.990Z,9.03
2018-04-26T22:38:57.720Z,9.01
2018-04-26T22:41:31.379Z,8.97
2018-04-26T22:44:04.931Z,8.73
2018-04-26T22:46:38.623Z,8.70
2018-04-26T22:49:12.229Z,8.81
2018-04-26T22:51:45.760Z,8.83
2018-04-26T22:54:19.435Z,8.84
2018-04-26T22:56:53.189Z,8.80
2018-04-26T22:59:26.944Z,8.81
2018-04-26T23:02:00.596Z,8.76
2018-04-26T23:04:34.098Z,8.74
2018-04-26T23:07:07.660Z,8.68
2018-04-26T23:09:41.315Z,8.60
2018-04-26T23:12:14.948Z,8.61
2018-04-26T23:14:48.460Z,8.40
2018-04-26T23:17:21.997Z,8.28
2018-04-26T23:19:55.596Z,8.29
2018-04-26T23:22:29.188Z,8.24
2018-04-26T23:25:02.815Z,8.12
2018-04-26T23:27:36.433Z,8.28
2018-04-26T23:30:10.051Z,8.26
2018-04-26T23:32:43.664Z,8.35
2018-04-26T23:35:17.217Z,8.33
2018-04-26T23:37:51.016Z,8.33
2018-04-26T23:40:24.603Z,8.31
2018-04-26T23:42:58.167Z,8.31
2018-04-26T23:45:31.760Z,8.27
2018-04-26T23:48:05.404Z,8.38
2018-04-26T23:50:39.088Z,8.37
2018-04-26T23:53:12.644Z,8.37
2018-04-26T23:55:46.298Z,8.26
2018-04-26T23:58:19.824Z,8.23
